Time;durP1;ratioP1;P1;durP2;ratioP2;P2;SDS_P1;SDS_P2;PMS_P1;PMS_P2;Temp;Humidity;BMP_temperature;BMP_pressure;BME280_temperature;BME280_humidity;BME280_pressure;Samples;Min_cycle;Max_cycle;Signal;HPM_P1;HPM_P2
2022/01/03 00:02:23;;;;;;;;;;;10.80;66.00;;;;;;5115855;28;20027;-82
2022/01/03 00:04:49;;;;;;;4.43;2.03;;;10.80;65.70;;;;;;5104085;28;19915;-82
2022/01/03 00:07:15;;;;;;;;;;;10.90;65.70;;;;;;5105401;28;20030;-82
2022/01/03 00:09:41;;;;;;;6.18;2.70;;;10.90;65.80;;;;;;5122585;28;20344;-82
2022/01/03 00:12:08;;;;;;;6.25;2.92;;;10.90;65.60;;;;;;5105844;28;20085;-82
2022/01/03 00:14:34;;;;;;;5.47;2.80;;;10.90;65.60;;;;;;5099530;28;20070;-82
2022/01/03 00:17:00;;;;;;;9.93;3.95;;;10.90;65.70;;;;;;5132560;28;20023;-82
2022/01/03 00:19:25;;;;;;;;;;;10.90;65.70;;;;;;5128169;28;20445;-81
2022/01/03 00:21:56;;;;;;;8.95;4.15;;;10.80;65.90;;;;;;5101623;28;19934;-81
2022/01/03 00:24:31;;;;;;;6.60;3.72;;;10.80;65.80;;;;;;5121096;28;20023;-81
2022/01/03 00:27:03;;;;;;;8.30;4.22;;;10.80;66.00;;;;;;5104941;28;20720;-82
2022/01/03 00:29:35;;;;;;;9.82;3.05;;;10.80;66.00;;;;;;5109436;28;20031;-82
2022/01/03 00:32:01;;;;;;;8.18;4.15;;;10.80;65.80;;;;;;5103316;28;20542;-81
2022/01/03 00:34:34;;;;;;;9.07;4.22;;;10.90;65.50;;;;;;5102673;28;20044;-81
2022/01/03 00:37:00;;;;;;;8.02;4.10;;;10.90;65.60;;;;;;5096544;28;20023;-83
2022/01/03 00:39:25;;;;;;;;;;;10.90;65.60;;;;;;5113777;28;20023;-83
2022/01/03 00:41:51;;;;;;;14.18;3.95;;;11.00;65.50;;;;;;5122251;28;19921;-84
2022/01/03 00:44:17;;;;;;;;;;;11.00;65.30;;;;;;5145298;28;20034;-84
2022/01/03 00:46:44;;;;;;;8.27;3.45;;;10.90;65.50;;;;;;5125806;28;19911;-85
2022/01/03 00:49:10;;;;;;;9.38;3.67;;;10.80;65.40;;;;;;5131657;28;20012;-83
2022/01/03 00:51:35;;;;;;;;;;;10.80;65.80;;;;;;5104204;28;20127;-83
2022/01/03 00:54:01;;;;;;;8.25;3.45;;;10.80;65.80;;;;;;5129545;28;19915;-83
2022/01/03 00:56:50;;;;;;;7.45;3.72;;;10.80;65.80;;;;;;5120016;28;20165;-84
2022/01/03 00:59:40;;;;;;;8.25;4.28;;;10.80;66.10;;;;;;5127440;28;20023;-84
2022/01/03 01:02:08;;;;;;;6.22;3.60;;;10.70;66.00;;;;;;5109826;28;20121;-84
2022/01/03 01:04:34;;;;;;;8.48;3.85;;;10.70;66.10;;;;;;5109466;28;20073;-84
2022/01/03 01:07:00;;;;;;;6.55;3.10;;;10.70;66.20;;;;;;5135428;27;20069;-84
2022/01/03 01:09:27;;;;;;;;;;;10.70;66.30;;;;;;5105973;27;20547;-84
2022/01/03 01:11:57;;;;;;;9.18;4.05;;;10.70;66.50;;;;;;5110175;27;19908;-84
2022/01/03 01:14:24;;;;;;;7.18;3.85;;;10.60;66.30;;;;;;5102870;27;20019;-85
2022/01/03 01:16:50;;;;;;;8.57;4.18;;;10.60;66.60;;;;;;5106217;27;20062;-84
2022/01/03 01:19:20;;;;;;;6.53;3.45;;;10.60;66.80;;;;;;5115948;27;20020;-84
2022/01/03 01:21:49;;;;;;;9.02;4.07;;;10.50;66.90;;;;;;5109377;27;20031;-84
2022/01/03 01:24:20;;;;;;;8.45;4.47;;;10.50;67.00;;;;;;5112338;27;20502;-84
2022/01/03 01:29:30;;;;;;;6.60;4.03;;;10.50;66.90;;;;;;5128339;27;20034;-84
2022/01/03 01:31:59;;;;;;;;;;;10.60;66.90;;;;;;5110236;27;20027;-84
2022/01/03 01:34:28;;;;;;;7.35;3.63;;;10.60;66.90;;;;;;5104574;27;19950;-83
2022/01/03 01:36:56;;;;;;;8.15;4.32;;;10.60;66.80;;;;;;5109435;27;20387;-84
2022/01/03 01:39:25;;;;;;;8.45;4.05;;;10.60;66.80;;;;;;5105103;27;20019;-84
2022/01/03 01:41:55;;;;;;;10.32;4.05;;;10.60;66.90;;;;;;5109716;27;20043;-84
2022/01/03 01:44:22;;;;;;;8.55;4.13;;;10.60;66.90;;;;;;5113021;27;20054;-84
2022/01/03 01:46:53;;;;;;;9.32;4.20;;;10.60;67.10;;;;;;5109585;27;20030;-83
2022/01/03 01:49:21;;;;;;;10.43;4.63;;;10.60;67.20;;;;;;5104359;27;20107;-83
2022/01/03 01:51:56;;;;;;;8.38;3.83;;;10.60;67.20;;;;;;5101855;28;20115;-83
2022/01/03 01:54:36;;;;;;;8.65;4.35;;;10.60;67.30;;;;;;5103643;27;20398;-83
2022/01/03 01:57:20;;;;;;;9.02;3.90;;;10.60;67.30;;;;;;5100106;28;20052;-84
2022/01/03 02:00:07;;;;;;;9.27;3.78;;;10.60;67.30;;;;;;5096257;27;20491;-84
2022/01/03 02:03:24;;;;;;;7.70;4.22;;;10.60;67.30;;;;;;5132122;27;20019;-84
2022/01/03 02:06:11;;;;;;;10.33;3.90;;;10.60;67.40;;;;;;5066261;27;20027;-84
2022/01/03 02:08:58;;;;;;;8.70;3.42;;;10.60;67.20;;;;;;5104419;27;20023;-84
2022/01/03 02:11:32;;;;;;;7.35;3.38;;;10.60;67.20;;;;;;5106613;28;20028;-85
2022/01/03 02:14:05;;;;;;;6.10;3.05;;;10.60;67.10;;;;;;5103733;27;20147;-84
2022/01/03 02:16:34;;;;;;;6.90;3.53;;;10.60;67.20;;;;;;5107995;27;20434;-85
2022/01/03 02:19:00;;;;;;;7.88;3.45;;;10.60;67.10;;;;;;5100132;27;20528;-88
2022/01/03 02:21:26;;;;;;;;;;;10.60;67.10;;;;;;5112931;27;20027;-89
2022/01/03 02:23:51;;;;;;;8.02;3.90;;;10.60;67.20;;;;;;5128569;27;19990;-89
2022/01/03 02:26:17;;;;;;;;;;;10.60;67.00;;;;;;5106454;28;20030;-89
2022/01/03 02:28:42;;;;;;;9.55;4.38;;;10.70;67.10;;;;;;5109469;27;19950;-89
2022/01/03 02:31:08;;;;;;;;;;;10.70;67.00;;;;;;5110274;27;20023;-89
2022/01/03 02:36:48;;;;;;;5.82;3.20;;;10.70;67.00;;;;;;6074486;23;20025;-88
2022/01/03 02:39:14;;;;;;;10.27;4.20;;;10.70;67.00;;;;;;5016542;28;20022;-88
2022/01/03 02:41:40;;;;;;;;;;;10.70;67.10;;;;;;5015155;28;20038;-88
2022/01/03 02:44:05;;;;;;;8.23;3.75;;;10.80;67.00;;;;;;5009246;28;20052;-87
2022/01/03 02:46:31;;;;;;;;;;;10.80;66.70;;;;;;5001096;28;20467;-86
2022/01/03 02:48:56;;;;;;;7.10;3.70;;;10.70;67.00;;;;;;4998736;28;19909;-88
2022/01/03 02:51:22;;;;;;;;;;;10.60;66.90;;;;;;4997703;28;20092;-88
2022/01/03 02:53:47;;;;;;;7.78;3.08;;;10.50;67.20;;;;;;5014141;28;19909;-87
2022/01/03 02:56:13;;;;;;;;;;;10.40;67.30;;;;;;5014792;28;20125;-88
2022/01/03 02:58:39;;;;;;;6.30;3.30;;;10.40;67.40;;;;;;5015297;28;19912;-88
2022/01/03 03:01:04;;;;;;;;;;;10.40;67.40;;;;;;5007608;28;20034;-88
2022/01/03 03:03:30;;;;;;;5.80;3.17;;;10.30;67.60;;;;;;5008216;28;20013;-87
2022/01/03 03:05:58;;;;;;;;;;;10.30;67.70;;;;;;4997064;28;20105;-88
2022/01/03 03:08:24;;;;;;;7.63;3.67;;;10.20;67.90;;;;;;5007706;28;19909;-87
2022/01/03 03:10:50;;;;;;;8.05;3.90;;;10.20;67.90;;;;;;5000254;28;20034;-88
2022/01/03 03:13:16;;;;;;;;;;;10.10;68.20;;;;;;5004507;28;20069;-88
2022/01/03 03:15:41;;;;;;;10.98;3.22;;;10.10;68.40;;;;;;4995559;28;19968;-88
2022/01/03 03:18:09;;;;;;;;;;;10.00;68.30;;;;;;4996207;28;20109;-88
2022/01/03 03:20:35;;;;;;;7.63;2.55;;;10.00;68.60;;;;;;5007190;28;19913;-88
2022/01/03 03:23:01;;;;;;;;;;;9.90;68.50;;;;;;5015117;28;20422;-89
2022/01/03 03:25:29;;;;;;;7.57;3.05;;;9.90;68.70;;;;;;4995304;28;19910;-88
2022/01/03 03:28:00;;;;;;;6.50;3.58;;;9.90;68.70;;;;;;5009441;28;20032;-88
2022/01/03 03:30:32;;;;;;;7.75;3.20;;;9.80;68.90;;;;;;4994123;28;20023;-88
2022/01/03 03:33:10;;;;;;;9.85;3.47;;;9.80;69.10;;;;;;5002396;28;20025;-89
2022/01/03 03:35:36;;;;;;;9.38;3.25;;;9.80;69.30;;;;;;4994619;28;20022;-86
2022/01/03 03:38:02;;;;;;;;;;;9.80;69.30;;;;;;4995335;28;20131;-87
2022/01/03 03:40:28;;;;;;;7.55;3.22;;;9.80;69.30;;;;;;5002869;28;20339;-87
2022/01/03 03:42:53;;;;;;;;;;;9.90;69.10;;;;;;5003323;28;20105;-88
2022/01/03 03:45:22;;;;;;;6.18;3.55;;;9.90;69.10;;;;;;5007364;28;20036;-88
2022/01/03 03:47:48;;;;;;;6.32;3.10;;;10.00;68.80;;;;;;5014873;28;20117;-88
2022/01/03 03:50:14;;;;;;;11.23;3.83;;;10.10;68.80;;;;;;5018906;28;20040;-88
2022/01/03 03:52:40;;;;;;;;;;;10.10;68.80;;;;;;5026479;28;20029;-88
2022/01/03 03:55:07;;;;;;;7.50;3.20;;;10.20;68.80;;;;;;5029408;28;19917;-87
2022/01/03 03:57:33;;;;;;;7.68;3.40;;;10.20;68.60;;;;;;5024083;28;20022;-86
2022/01/03 03:59:58;;;;;;;;;;;10.20;68.70;;;;;;5016044;28;20003;-87
2022/01/03 04:02:24;;;;;;;9.15;3.60;;;10.20;68.70;;;;;;5016319;28;19933;-87
2022/01/03 04:04:49;;;;;;;;;;;10.30;68.40;;;;;;5016082;28;20073;-87
2022/01/03 04:07:15;;;;;;;9.00;4.03;;;10.30;68.50;;;;;;5013393;28;19909;-88
2022/01/03 04:09:41;;;;;;;;;;;10.30;68.20;;;;;;4999025;28;20026;-88
2022/01/03 04:12:07;;;;;;;6.30;2.78;;;10.40;68.40;;;;;;4998076;28;19906;-87
2022/01/03 04:14:32;;;;;;;;;;;10.30;68.30;;;;;;4996981;28;20037;-88
2022/01/03 04:16:58;;;;;;;7.18;2.92;;;10.40;68.30;;;;;;4999240;28;19910;-89
2022/01/03 04:19:23;;;;;;;;;;;10.40;68.20;;;;;;5016066;28;20014;-89
2022/01/03 04:21:50;;;;;;;5.03;2.80;;;10.50;68.20;;;;;;5003697;28;19926;-89
2022/01/03 04:24:16;;;;;;;9.23;3.67;;;10.50;68.00;;;;;;5008196;28;20029;-88
2022/01/03 04:26:45;;;;;;;;;;;10.50;67.90;;;;;;5013751;28;20084;-86
2022/01/03 04:29:11;;;;;;;7.00;3.13;;;10.50;67.80;;;;;;5009542;28;20354;-87
2022/01/03 04:31:37;;;;;;;2.88;1.73;;;10.50;67.80;;;;;;5003596;28;20058;-88
2022/01/03 04:34:03;;;;;;;;;;;10.40;68.00;;;;;;4995497;28;20427;-88
2022/01/03 04:36:28;;;;;;;5.18;2.25;;;10.50;68.00;;;;;;4995912;28;19906;-88
2022/01/03 04:38:54;;;;;;;;;;;10.60;67.60;;;;;;5001939;28;20042;-88
2022/01/03 04:41:20;;;;;;;6.03;2.72;;;10.70;67.50;;;;;;5002472;28;19921;-89
2022/01/03 04:43:46;;;;;;;;;;;10.70;67.10;;;;;;5001046;28;20025;-88
2022/01/03 04:46:12;;;;;;;4.22;1.92;;;10.80;67.00;;;;;;5017882;28;19913;-88
2022/01/03 04:48:38;;;;;;;;;;;10.80;66.80;;;;;;5018256;28;20018;-88
2022/01/03 04:51:04;;;;;;;7.43;2.73;;;10.90;66.70;;;;;;5017872;28;19905;-87
2022/01/03 04:53:29;;;;;;;;;;;10.90;66.30;;;;;;5017270;28;20284;-88
2022/01/03 04:55:58;;;;;;;7.20;2.63;;;10.90;66.30;;;;;;5011070;28;19916;-87
2022/01/03 04:58:23;;;;;;;10.60;3.08;;;11.00;66.00;;;;;;5002343;28;20052;-87
2022/01/03 05:00:49;;;;;;;;;;;11.00;65.80;;;;;;5018462;28;20204;-88
2022/01/03 05:03:16;;;;;;;4.60;2.65;;;11.10;66.00;;;;;;5007544;28;19933;-88
2022/01/03 05:05:44;;;;;;;5.68;2.47;;;11.10;65.80;;;;;;5006368;28;20143;-89
2022/01/03 05:08:10;;;;;;;7.07;2.40;;;11.10;65.70;;;;;;4993867;28;20026;-87
2022/01/03 05:10:36;;;;;;;4.57;2.10;;;11.20;65.50;;;;;;5013990;28;20030;-89
2022/01/03 05:13:01;;;;;;;;;;;11.20;65.20;;;;;;5000303;28;20023;-88
2022/01/03 05:15:27;;;;;;;4.10;2.20;;;11.20;65.20;;;;;;5011025;28;20311;-88
2022/01/03 05:17:52;;;;;;;;;;;11.30;65.00;;;;;;5010658;28;20019;-88
2022/01/03 05:20:18;;;;;;;4.32;2.13;;;11.30;64.90;;;;;;5005935;28;19910;-87
2022/01/03 05:22:44;;;;;;;;;;;11.30;64.90;;;;;;5016528;28;20042;-88
2022/01/03 05:25:10;;;;;;;4.55;1.98;;;11.30;64.80;;;;;;5002581;28;19918;-88
2022/01/03 05:27:37;;;;;;;;;;;11.40;64.50;;;;;;4998604;28;20031;-88
2022/01/03 05:30:04;;;;;;;6.07;2.78;;;11.40;64.80;;;;;;5005834;28;19929;-88
2022/01/03 05:32:30;;;;;;;8.55;2.28;;;11.40;64.40;;;;;;5014306;28;20058;-88
2022/01/03 05:34:55;;;;;;;;;;;11.40;64.50;;;;;;5005743;28;20018;-88
2022/01/03 05:37:21;;;;;;;3.65;1.73;;;11.40;64.80;;;;;;5015722;28;19979;-88
2022/01/03 05:39:46;;;;;;;;;;;11.50;65.50;;;;;;5016695;28;20033;-88
2022/01/03 05:42:12;;;;;;;5.15;2.30;;;11.30;66.10;;;;;;5009179;28;19920;-88
2022/01/03 05:44:37;;;;;;;;;;;11.30;66.70;;;;;;4997415;28;20037;-88
2022/01/03 05:47:03;;;;;;;4.68;1.90;;;11.20;67.30;;;;;;5011585;28;19905;-87
2022/01/03 05:49:29;;;;;;;;;;;11.10;67.60;;;;;;4999098;28;20542;-87
2022/01/03 05:51:54;;;;;;;4.07;1.63;;;11.00;67.90;;;;;;5009994;28;19905;-87
2022/01/03 05:54:20;;;;;;;;;;;10.90;68.20;;;;;;5009060;28;20026;-88
2022/01/03 05:56:45;;;;;;;3.78;1.60;;;10.90;68.50;;;;;;5005537;28;19963;-87
2022/01/03 05:59:11;;;;;;;;;;;11.00;68.60;;;;;;4997411;28;20027;-86
2022/01/03 06:01:38;;;;;;;8.50;2.53;;;10.90;69.00;;;;;;5013867;28;19914;-86
2022/01/03 06:04:25;;;;;;;6.97;2.85;;;10.90;69.40;;;;;;5015412;28;20021;-87
2022/01/03 06:06:56;;;;;;;;;;;10.80;70.00;;;;;;5010176;28;20029;-87
2022/01/03 06:09:23;;;;;;;7.32;2.50;;;10.80;70.60;;;;;;5008125;28;19976;-87
2022/01/03 06:11:53;;;;;;;5.95;2.45;;;10.70;70.70;;;;;;4998410;28;20022;-87
2022/01/03 06:14:20;;;;;;;7.40;2.70;;;10.70;71.20;;;;;;4995862;28;20022;-87
2022/01/03 06:16:47;;;;;;;4.40;2.47;;;10.60;71.60;;;;;;4996591;28;20085;-87
2022/01/03 06:19:13;;;;;;;4.38;1.90;;;10.60;71.90;;;;;;5002448;28;20045;-87
2022/01/03 06:21:40;;;;;;;6.63;2.75;;;10.50;72.30;;;;;;5015276;28;20478;-87
2022/01/03 06:24:10;;;;;;;4.82;2.60;;;10.40;72.50;;;;;;5015675;28;20022;-88
2022/01/03 06:26:37;;;;;;;5.45;2.60;;;10.50;72.70;;;;;;5000785;28;20420;-88
2022/01/03 06:29:04;;;;;;;6.57;2.70;;;10.40;73.00;;;;;;5016600;28;20053;-88
2022/01/03 06:31:31;;;;;;;12.68;6.95;;;10.30;73.20;;;;;;5016068;28;20580;-87
2022/01/03 06:33:57;;;;;;;37.40;16.48;;;10.30;73.40;;;;;;5016323;28;20052;-85
2022/01/03 06:36:28;;;;;;;22.08;9.70;;;10.30;73.50;;;;;;5013984;28;20368;-88
2022/01/03 06:38:54;;;;;;;16.65;8.55;;;10.30;73.80;;;;;;5008346;28;20034;-89
2022/01/03 06:41:19;;;;;;;;;;;10.20;73.90;;;;;;5011824;28;20386;-88
2022/01/03 06:44:04;;;;;;;10.95;7.68;;;10.20;74.00;;;;;;5010372;28;19916;-89
2022/01/03 06:46:30;;;;;;;9.57;4.50;;;10.20;74.00;;;;;;5011255;28;20360;-89
2022/01/03 06:48:55;;;;;;;;;;;10.20;74.00;;;;;;5005765;28;20029;-88
2022/01/03 06:51:21;;;;;;;5.18;2.42;;;10.20;74.20;;;;;;5009930;28;19975;-87
2022/01/03 06:53:46;;;;;;;;;;;10.20;74.00;;;;;;5005311;28;20030;-88
2022/01/03 06:56:12;;;;;;;3.53;1.88;;;10.30;74.10;;;;;;5006943;28;20043;-86
2022/01/03 06:58:42;;;;;;;;;;;10.30;74.00;;;;;;5004323;28;20034;-89
2022/01/03 07:01:08;;;;;;;6.50;3.13;;;10.30;74.10;;;;;;5017037;28;19949;-88
2022/01/03 07:03:34;;;;;;;;;;;10.30;74.20;;;;;;5028032;28;20034;-88
2022/01/03 07:05:59;;;;;;;9.00;3.60;;;10.20;74.30;;;;;;5026541;28;19929;-87
2022/01/03 07:08:25;;;;;;;;;;;10.20;74.20;;;;;;5027693;28;20057;-87
2022/01/03 07:10:50;;;;;;;9.65;3.40;;;10.30;74.40;;;;;;5021332;28;19901;-84
2022/01/03 07:13:16;;;;;;;;;;;10.30;74.20;;;;;;5019262;28;20042;-86
2022/01/03 07:21:13;;;;;;;7.20;2.95;;;10.20;74.70;;;;;;5010237;28;20129;-93
2022/01/03 07:23:41;;;;;;;11.00;3.90;;;10.20;74.80;;;;;;5002208;28;20471;-93
2022/01/03 07:26:06;;;;;;;6.13;2.33;;;10.30;74.80;;;;;;5000626;28;20018;-94
2022/01/03 07:28:32;;;;;;;;;;;10.30;74.70;;;;;;5018328;28;20102;-94
2022/01/03 07:31:01;;;;;;;12.70;3.35;;;10.40;74.60;;;;;;5000735;28;19902;-93
2022/01/03 07:33:26;;;;;;;4.72;2.20;;;10.40;74.20;;;;;;5011918;28;20037;-95
2022/01/03 07:35:54;;;;;;;;;;;10.50;74.30;;;;;;5019281;28;20026;-95
2022/01/03 07:38:20;;;;;;;4.10;2.20;;;10.50;74.40;;;;;;5016605;28;19921;-96
2022/01/03 07:40:48;;;;;;;;;;;10.50;74.30;;;;;;5004044;28;20073;-96
2022/01/03 07:43:14;;;;;;;10.63;4.15;;;10.40;74.60;;;;;;5004820;28;19949;-95
2022/01/03 07:45:43;;;;;;;8.52;3.55;;;10.40;74.70;;;;;;5001150;28;20030;-95
2022/01/03 07:48:08;;;;;;;8.75;3.30;;;10.40;75.00;;;;;;5000012;28;20033;-95
2022/01/03 07:50:34;;;;;;;;;;;10.30;75.20;;;;;;4999485;28;20022;-95
2022/01/03 07:53:00;;;;;;;9.23;3.10;;;10.40;75.30;;;;;;4999169;28;19945;-94
2022/01/03 07:55:26;;;;;;;;;;;10.40;75.20;;;;;;4999336;28;20026;-95
2022/01/03 07:57:52;;;;;;;4.28;2.13;;;10.30;75.30;;;;;;4999423;28;20857;-94
2022/01/03 08:00:21;;;;;;;5.63;2.90;;;10.40;74.90;;;;;;4999442;28;20110;-93
2022/01/03 08:02:56;;;;;;;3.50;1.55;;;10.40;75.00;;;;;;5000088;28;20037;-95
2022/01/03 08:05:21;;;;;;;7.18;3.25;;;10.40;75.00;;;;;;5010779;28;20022;-95
2022/01/03 08:07:47;;;;;;;;;;;10.50;74.70;;;;;;5018119;28;20018;-94
2022/01/03 08:10:14;;;;;;;2.28;1.42;;;10.50;74.40;;;;;;5003317;28;19910;-94
2022/01/03 08:16:03;;;;;;;13.60;5.15;;;10.60;73.80;;;;;;5023955;28;20021;-95
2022/01/03 08:18:31;;;;;;;6.10;2.58;;;10.70;73.70;;;;;;5022167;28;20022;-95
2022/01/03 08:20:57;;;;;;;3.50;1.77;;;10.70;73.70;;;;;;5021001;28;20462;-95
2022/01/03 08:23:22;;;;;;;;;;;10.70;73.50;;;;;;5019145;28;20064;-95
2022/01/03 08:25:48;;;;;;;5.88;2.72;;;10.80;73.00;;;;;;5002304;28;20342;-94
2022/01/03 08:28:14;;;;;;;;;;;10.80;72.50;;;;;;5002283;28;20034;-95
2022/01/03 08:30:40;;;;;;;4.32;2.28;;;10.80;72.50;;;;;;5002246;28;19914;-93
2022/01/03 08:33:06;;;;;;;;;;;10.80;72.00;;;;;;5002341;28;20033;-94
2022/01/03 08:35:32;;;;;;;7.95;2.40;;;10.80;72.00;;;;;;5001559;28;19961;-95
2022/01/03 08:38:04;;;;;;;7.70;2.53;;;10.80;72.00;;;;;;5002309;28;20042;-94
2022/01/03 08:40:31;;;;;;;7.45;2.65;;;10.80;71.70;;;;;;5003641;28;20031;-95
2022/01/03 08:42:57;;;;;;;6.75;2.67;;;10.90;71.70;;;;;;5009659;28;20475;-93
2022/01/03 08:45:23;;;;;;;10.85;4.13;;;10.90;71.60;;;;;;5016900;28;20061;-93
2022/01/03 08:47:49;;;;;;;;;;;10.90;71.60;;;;;;5011072;28;20026;-93
2022/01/03 08:50:18;;;;;;;5.82;3.03;;;10.90;71.60;;;;;;5015313;28;19940;-94
2022/01/03 08:52:47;;;;;;;9.68;3.50;;;11.00;70.90;;;;;;5018979;28;20026;-93
2022/01/03 08:55:49;;;;;;;5.75;1.92;;;11.00;70.60;;;;;;5012465;28;20479;-95
2022/01/03 08:58:16;;;;;;;5.25;1.95;;;11.10;70.50;;;;;;5004183;28;20124;-92
2022/01/03 09:00:42;;;;;;;6.28;2.97;;;11.10;69.90;;;;;;5009053;28;20543;-94
2022/01/03 09:03:10;;;;;;;;;;;11.10;69.70;;;;;;5014548;28;20053;-93
2022/01/03 09:05:41;;;;;;;5.85;2.22;;;11.20;69.40;;;;;;5016579;28;19917;-93
2022/01/03 09:08:09;;;;;;;4.90;2.38;;;11.20;69.00;;;;;;5013198;28;20026;-93
2022/01/03 09:10:38;;;;;;;5.95;3.22;;;11.20;69.00;;;;;;5017445;28;20014;-93
2022/01/03 09:13:06;;;;;;;7.68;3.17;;;11.10;68.90;;;;;;5016396;28;20026;-94
2022/01/03 09:15:32;;;;;;;9.45;4.05;;;11.10;68.90;;;;;;5013608;28;20014;-94
2022/01/03 09:18:05;;;;;;;;;;;11.10;68.80;;;;;;5003811;28;20086;-94
2022/01/03 09:20:31;;;;;;;21.88;7.05;;;11.10;68.60;;;;;;5007293;28;19913;-94
2022/01/03 09:23:06;;;;;;;12.63;6.00;;;11.20;68.10;;;;;;5005792;28;20369;-93
2022/01/03 09:30:52;;;;;;;15.10;5.70;;;11.30;67.40;;;;;;5002141;28;20130;-89
2022/01/03 09:33:18;;;;;;;;;;;11.40;67.10;;;;;;5019514;28;20503;-91
2022/01/03 09:35:44;;;;;;;5.73;3.10;;;11.50;66.70;;;;;;5018462;28;19968;-91
2022/01/03 09:38:10;;;;;;;4.68;2.17;;;11.60;66.40;;;;;;5017676;28;20057;-91
2022/01/03 09:40:37;;;;;;;;;;;11.60;66.00;;;;;;5018749;28;20030;-89
2022/01/03 09:43:03;;;;;;;7.88;2.85;;;11.80;66.20;;;;;;5007402;28;19910;-90
2022/01/03 09:45:34;;;;;;;10.55;4.38;;;11.90;65.20;;;;;;5011365;28;20086;-90
2022/01/03 09:48:03;;;;;;;6.57;3.58;;;11.80;65.40;;;;;;4999385;28;20034;-90
2022/01/03 09:50:32;;;;;;;13.10;5.50;;;11.70;65.40;;;;;;4999549;28;20022;-90
2022/01/03 09:52:58;;;;;;;11.98;3.28;;;11.60;65.30;;;;;;5014370;28;20030;-91
2022/01/03 09:55:23;;;;;;;;;;;11.60;65.30;;;;;;5018414;28;20029;-91
2022/01/03 09:57:50;;;;;;;6.82;3.15;;;11.80;65.20;;;;;;4999185;28;19910;-90
2022/01/03 10:00:22;;;;;;;4.93;2.42;;;12.00;64.80;;;;;;4999647;28;20037;-90
2022/01/03 10:02:50;;;;;;;4.80;2.30;;;12.20;63.80;;;;;;5030752;28;20034;-90
2022/01/03 10:05:16;;;;;;;8.35;3.42;;;12.20;64.20;;;;;;5017651;28;20018;-90
2022/01/03 10:07:41;;;;;;;;;;;12.50;63.70;;;;;;5007756;28;20113;-90
2022/01/03 10:10:28;;;;;;;6.45;2.42;;;13.10;62.40;;;;;;5018042;28;19905;-90
2022/01/03 10:12:54;;;;;;;11.80;5.57;;;13.80;60.40;;;;;;5005895;28;20017;-90
2022/01/03 10:15:19;;;;;;;20.30;6.85;;;14.40;58.70;;;;;;5017768;28;20378;-90
2022/01/03 10:17:47;;;;;;;;;;;15.00;57.90;;;;;;5015843;28;20110;-90
2022/01/03 10:20:13;;;;;;;;;;;15.20;56.80;;;;;;5023660;28;19924;-91
2022/01/03 10:22:42;;;;;;;9.75;3.95;;;14.80;56.40;;;;;;5022983;28;19940;-90
2022/01/03 10:25:16;;;;;;;5.57;2.88;;;14.40;56.40;;;;;;5019220;28;20018;-90
2022/01/03 10:27:55;;;;;;;12.20;4.50;;;14.10;56.50;;;;;;5019478;28;20029;-90
2022/01/03 10:30:42;;;;;;;10.20;3.92;;;14.30;56.70;;;;;;5013867;28;20120;-88
2022/01/03 10:33:12;;;;;;;3.65;2.25;;;14.80;55.80;;;;;;5012189;28;20017;-89
2022/01/03 10:35:46;;;;;;;6.10;2.35;;;15.40;54.40;;;;;;5020573;28;20056;-94
2022/01/03 10:38:37;;;;;;;6.68;2.50;;;15.80;53.50;;;;;;5004160;28;20054;-90
2022/01/03 10:41:22;;;;;;;4.45;2.15;;;16.10;52.10;;;;;;5017160;28;20040;-92
2022/01/03 10:43:54;;;;;;;5.85;2.63;;;16.20;52.10;;;;;;5006010;28;20026;-91
2022/01/03 10:46:50;;;;;;;7.97;3.00;;;15.80;52.70;;;;;;5006025;28;20426;-91
2022/01/03 10:49:26;;;;;;;10.00;3.47;;;15.50;53.20;;;;;;5010742;28;20079;-91
2022/01/03 10:52:01;;;;;;;;;;;15.20;53.90;;;;;;5002175;28;20398;-92
2022/01/03 10:54:27;;;;;;;6.03;2.63;;;15.30;54.00;;;;;;5013357;28;19910;-90
2022/01/03 10:56:52;;;;;;;3.70;1.45;;;15.80;53.50;;;;;;5001007;28;20014;-93
2022/01/03 10:59:24;;;;;;;19.85;8.38;;;15.90;52.70;;;;;;5013926;28;20418;-91
2022/01/03 11:02:02;;;;;;;6.15;2.67;;;15.80;52.70;;;;;;5001308;28;20048;-92
2022/01/03 11:04:51;;;;;;;2.28;1.33;;;15.60;53.20;;;;;;5010942;28;20019;-91
2022/01/03 11:13:14;;;;;;;5.15;2.00;;;14.60;54.10;;;;;;5008359;28;20072;-92
2022/01/03 11:15:48;;;;;;;6.50;2.33;;;14.40;54.30;;;;;;5018303;28;20031;-91
2022/01/03 11:18:27;;;;;;;4.93;1.80;;;14.20;54.50;;;;;;5012756;28;20091;-92
2022/01/03 11:21:09;;;;;;;7.35;2.35;;;13.80;55.70;;;;;;5011674;28;20034;-92
2022/01/03 11:23:36;;;;;;;7.35;2.40;;;13.40;56.10;;;;;;5007424;28;20030;-92
2022/01/03 11:26:13;;;;;;;5.13;2.25;;;13.10;56.90;;;;;;5003734;28;20018;-92
2022/01/03 11:28:52;;;;;;;;;;;12.90;57.50;;;;;;5011123;28;20014;-92
2022/01/03 11:31:20;;;;;;;4.15;2.65;;;12.80;57.70;;;;;;5019416;28;19905;-93
2022/01/03 11:33:51;;;;;;;4.90;2.40;;;13.00;57.70;;;;;;5011876;28;20025;-91
2022/01/03 11:36:20;;;;;;;9.02;3.38;;;13.20;57.80;;;;;;5008653;28;20034;-90
2022/01/03 11:39:00;;;;;;;5.70;2.67;;;13.40;57.90;;;;;;5012662;28;20137;-92
2022/01/03 11:42:30;;;;;;;;;;;;;;;;;;;;;
2022/01/03 11:44:59;;;;;;;10.52;3.33;;;13.80;57.10;;;;;;5010004;28;20121;-91
2022/01/03 11:47:27;;;;;;;4.90;2.17;;;13.90;56.70;;;;;;5008933;28;20486;-86
2022/01/03 11:49:53;;;;;;;10.23;3.00;;;13.80;56.90;;;;;;5005253;28;20096;-86
2022/01/03 11:52:20;;;;;;;;;;;13.80;56.20;;;;;;5008372;28;20061;-90
2022/01/03 11:54:46;;;;;;;5.70;2.10;;;13.60;56.20;;;;;;5009108;28;20345;-90
2022/01/03 11:57:34;;;;;;;3.83;1.90;;;13.60;56.10;;;;;;5009160;28;20064;-89
2022/01/03 12:05:44;;;;;;;3.13;1.70;;;13.30;55.30;;;;;;5004833;28;20089;-89
2022/01/03 12:08:20;;;;;;;4.55;1.40;;;13.40;54.50;;;;;;5000568;28;20022;-89
2022/01/03 12:10:46;;;;;;;2.95;1.10;;;13.50;53.30;;;;;;5006876;28;20030;-89
2022/01/03 12:13:14;;;;;;;4.10;1.52;;;13.60;53.10;;;;;;5001421;28;20065;-87
2022/01/03 12:15:42;;;;;;;2.35;1.20;;;13.70;52.80;;;;;;5017876;28;20038;-89
2022/01/03 12:18:27;;;;;;;5.05;1.92;;;13.70;51.90;;;;;;5004728;28;20022;-88
2022/01/03 12:20:53;;;;;;;9.77;2.40;;;13.70;51.60;;;;;;5010349;28;20502;-89
2022/01/03 12:23:43;;;;;;;;;;;13.60;51.10;;;;;;5008569;28;20085;-89
2022/01/03 12:26:14;;;;;;;3.63;1.65;;;13.70;51.50;;;;;;5011688;28;19917;-89
2022/01/03 12:29:07;;;;;;;2.80;1.50;;;13.70;50.50;;;;;;5004006;28;20033;-88
2022/01/03 12:32:05;;;;;;;7.30;1.60;;;13.60;50.70;;;;;;5016031;28;20045;-89
2022/01/03 12:34:31;;;;;;;3.55;1.25;;;13.50;51.10;;;;;;5020730;28;20074;-90
2022/01/03 12:37:29;;;;;;;;;;;13.40;50.70;;;;;;5009467;28;20026;-90
2022/01/03 12:40:13;;;;;;;4.88;1.73;;;13.30;50.80;;;;;;5002728;28;19940;-90
2022/01/03 12:42:52;;;;;;;4.53;1.10;;;13.00;51.30;;;;;;5002829;28;20026;-90
2022/01/03 12:45:42;;;;;;;5.57;1.70;;;12.80;51.60;;;;;;5004850;28;20041;-89
2022/01/03 12:48:11;;;;;;;5.95;1.70;;;12.70;52.10;;;;;;4996667;28;20098;-82
2022/01/03 12:50:37;;;;;;;2.67;1.33;;;12.60;52.70;;;;;;5010875;28;20030;-85
2022/01/03 12:53:03;;;;;;;;;;;12.50;53.00;;;;;;5011112;28;20031;-85
2022/01/03 12:55:37;;;;;;;3.92;1.80;;;12.50;52.40;;;;;;5026951;28;19913;-85
2022/01/03 12:58:18;;;;;;;1.75;0.90;;;12.40;52.80;;;;;;4998928;28;20499;-90
2022/01/03 13:14:32;;;;;;;3.35;0.93;;;11.80;53.90;;;;;;5004421;28;20541;-89
2022/01/03 13:20:20;;;;;;;4.82;1.60;;;11.70;54.20;;;;;;5003932;28;20033;-88
2022/01/03 13:25:50;;;;;;;7.13;2.03;;;11.70;54.00;;;;;;5009814;28;19913;-89
2022/01/03 13:35:10;;;;;;;5.47;2.00;;;11.60;54.90;;;;;;4985332;28;20038;-88
2022/01/03 14:03:57;;;;;;;5.15;2.40;;;11.80;55.20;;;;;;4987171;28;20557;-90
2022/01/03 14:06:23;;;;;;;;;;;11.80;55.30;;;;;;4986650;28;20110;-92
2022/01/03 14:08:51;;;;;;;11.15;2.63;;;11.70;55.50;;;;;;4986004;28;19894;-92
2022/01/03 14:11:22;;;;;;;2.03;1.20;;;11.70;55.60;;;;;;4982826;28;20034;-93
2022/01/03 14:13:48;;;;;;;4.10;2.00;;;11.60;56.10;;;;;;4984620;28;20048;-93
2022/01/03 14:16:14;;;;;;;;;;;11.60;56.30;;;;;;4982317;28;20125;-93
2022/01/03 14:18:46;;;;;;;3.27;1.40;;;11.50;56.50;;;;;;4980452;28;20025;-87
2022/01/03 14:21:18;;;;;;;3.55;1.70;;;11.50;56.50;;;;;;4972649;28;20333;-88
2022/01/03 14:23:51;;;;;;;6.05;1.88;;;11.50;56.40;;;;;;4994648;28;20097;-87
2022/01/03 14:26:28;;;;;;;2.90;1.20;;;11.40;56.80;;;;;;4979790;28;20050;-87
2022/01/03 14:29:07;;;;;;;6.43;1.83;;;11.30;57.30;;;;;;4980025;28;20030;-88
2022/01/03 14:31:49;;;;;;;1.40;0.95;;;11.20;57.80;;;;;;4996315;28;20042;-87
2022/01/03 14:34:23;;;;;;;11.27;2.60;;;11.20;58.10;;;;;;5004548;28;20441;-85
2022/01/03 14:36:55;;;;;;;5.88;2.45;;;11.10;58.40;;;;;;5004584;28;20109;-85
2022/01/03 14:39:23;;;;;;;10.90;4.32;;;11.00;58.70;;;;;;5002972;28;20038;-85
2022/01/03 14:42:07;;;;;;;7.05;2.63;;;11.00;58.90;;;;;;5002968;28;20061;-86
2022/01/03 14:44:34;;;;;;;5.47;1.90;;;10.90;59.20;;;;;;5005832;28;20033;-86
2022/01/03 14:47:08;;;;;;;6.57;2.88;;;10.90;59.30;;;;;;4997362;28;20474;-86